createdAt,value
2019-03-25T00:01:09.116Z,20.12
2019-03-25T00:03:42.778Z,22.40
2019-03-25T00:06:17.263Z,25.05
2019-03-25T00:09:04.487Z,21.25
2019-03-25T00:11:25.416Z,22.90
2019-03-25T00:13:59.084Z,25.75
2019-03-25T00:16:32.809Z,19.33
2019-03-25T00:19:06.485Z,20.33
2019-03-25T00:21:40.095Z,21.37
2019-03-25T00:24:14.624Z,18.52
2019-03-25T00:26:48.387Z,21.65
2019-03-25T00:29:22.834Z,17.58
2019-03-25T00:31:56.629Z,20.02
2019-03-25T00:34:30.262Z,16.67
2019-03-25T00:37:03.982Z,20.08
2019-03-25T00:39:37.494Z,14.40
2019-03-25T00:42:11.327Z,14.73
2019-03-25T00:44:45.070Z,18.30
2019-03-25T00:47:18.670Z,13.20
2019-03-25T00:49:52.271Z,15.00
2019-03-25T00:52:26.022Z,11.95
2019-03-25T00:55:00.442Z,11.38
2019-03-25T00:57:34.944Z,14.90
2019-03-25T01:00:08.533Z,11.57
2019-03-25T01:02:42.110Z,8.50
2019-03-25T01:05:15.770Z,12.05
2019-03-25T01:07:49.427Z,14.43
2019-03-25T01:10:22.928Z,11.00
2019-03-25T01:12:57.281Z,9.82
2019-03-25T01:15:30.811Z,14.23
2019-03-25T01:18:16.108Z,12.85
2019-03-25T01:20:38.942Z,11.63
2019-03-25T01:23:12.481Z,12.93
2019-03-25T01:25:46.116Z,14.20
2019-03-25T01:28:19.873Z,10.80
2019-03-25T01:30:53.463Z,9.80
2019-03-25T01:33:28.003Z,9.98
2019-03-25T01:36:01.771Z,8.07
2019-03-25T01:38:35.490Z,9.32
2019-03-25T01:41:09.206Z,6.57
2019-03-25T01:43:42.931Z,9.57
2019-03-25T01:46:16.612Z,12.00
2019-03-25T01:48:51.156Z,7.07
2019-03-25T01:51:24.664Z,6.53
2019-03-25T01:53:58.232Z,7.72
2019-03-25T01:56:31.977Z,7.75
2019-03-25T01:59:05.634Z,7.28
2019-03-25T02:01:39.280Z,5.45
2019-03-25T02:04:13.107Z,10.40
2019-03-25T02:06:46.793Z,9.80
2019-03-25T02:09:20.489Z,6.68
2019-03-25T02:11:54.123Z,9.60
2019-03-25T02:14:27.721Z,7.70
2019-03-25T02:17:01.380Z,8.63
2019-03-25T02:19:35.648Z,9.88
2019-03-25T02:22:09.420Z,7.62
2019-03-25T02:24:46.234Z,8.88
2019-03-25T02:27:20.061Z,9.52
2019-03-25T02:29:53.680Z,8.77
2019-03-25T02:32:28.011Z,13.05
2019-03-25T02:35:02.515Z,9.50
2019-03-25T02:37:36.154Z,15.32
2019-03-25T02:40:09.720Z,14.15
2019-03-25T02:42:43.292Z,10.02
2019-03-25T02:45:16.923Z,7.72
2019-03-25T02:47:51.481Z,11.05
2019-03-25T02:50:25.094Z,10.05
2019-03-25T02:52:58.748Z,9.25
2019-03-25T02:55:41.363Z,13.07
2019-03-25T02:58:06.916Z,6.12
2019-03-25T03:00:41.410Z,7.53
2019-03-25T03:03:15.201Z,10.60
2019-03-25T03:05:48.853Z,13.52
2019-03-25T03:08:22.605Z,7.97
2019-03-25T03:10:56.372Z,5.97
2019-03-25T03:13:29.928Z,6.57
2019-03-25T03:16:03.559Z,7.30
2019-03-25T03:18:38.055Z,5.87
2019-03-25T03:21:11.635Z,6.05
2019-03-25T03:23:45.257Z,4.20
2019-03-25T03:26:18.886Z,6.78
2019-03-25T03:28:52.594Z,10.50
2019-03-25T03:31:26.358Z,5.55
2019-03-25T03:33:59.722Z,7.00
2019-03-25T03:36:33.321Z,4.57
2019-03-25T03:39:06.976Z,6.78
2019-03-25T03:41:40.455Z,5.35
2019-03-25T03:44:14.014Z,10.68
2019-03-25T03:46:48.544Z,5.20
2019-03-25T03:49:22.188Z,5.65
2019-03-25T03:51:56.495Z,14.55
2019-03-25T03:54:30.033Z,10.85
2019-03-25T03:57:03.781Z,5.15
2019-03-25T03:59:38.225Z,9.65
2019-03-25T04:02:11.930Z,10.32
2019-03-25T04:04:45.478Z,5.80
2019-03-25T04:07:19.268Z,6.05
2019-03-25T04:09:53.728Z,3.85
2019-03-25T04:12:27.408Z,7.05
2019-03-25T04:15:00.954Z,5.05
2019-03-25T04:17:34.549Z,8.88
2019-03-25T04:20:08.130Z,7.45
2019-03-25T04:22:41.782Z,6.15
2019-03-25T04:25:16.848Z,6.37
2019-03-25T04:27:50.434Z,7.72
2019-03-25T04:30:23.993Z,8.18
2019-03-25T04:32:57.514Z,7.20
2019-03-25T04:35:32.042Z,6.87
2019-03-25T04:38:06.544Z,10.00
2019-03-25T04:40:40.198Z,10.65
2019-03-25T04:43:13.799Z,9.27
2019-03-25T04:45:47.395Z,8.32
2019-03-25T04:48:21.063Z,11.25
2019-03-25T04:50:54.787Z,7.87
2019-03-25T04:53:28.363Z,8.88
2019-03-25T04:56:01.953Z,9.27
2019-03-25T04:58:36.288Z,10.57
2019-03-25T05:01:09.884Z,6.82
2019-03-25T05:03:43.435Z,9.02
2019-03-25T05:06:17.063Z,9.07
2019-03-25T05:08:50.786Z,9.10
2019-03-25T05:11:30.612Z,8.45
2019-03-25T05:13:59.709Z,12.40
2019-03-25T05:16:33.395Z,8.23
2019-03-25T05:19:07.167Z,10.50
2019-03-25T05:21:40.995Z,6.07
2019-03-25T05:24:14.593Z,6.12
2019-03-25T05:26:51.232Z,11.32
2019-03-25T05:29:22.132Z,10.68
2019-03-25T05:31:55.889Z,7.53
2019-03-25T05:34:29.441Z,10.05
2019-03-25T05:37:03.046Z,12.20
2019-03-25T05:39:36.793Z,8.60
2019-03-25T05:42:10.571Z,7.50
2019-03-25T05:44:44.437Z,7.47
2019-03-25T05:47:18.106Z,9.90
2019-03-25T05:49:52.551Z,10.23
2019-03-25T05:52:26.315Z,8.20
2019-03-25T05:54:59.904Z,7.25
2019-03-25T05:57:33.836Z,10.98
2019-03-25T06:00:07.447Z,9.15
2019-03-25T06:02:41.422Z,8.02
2019-03-25T06:05:16.079Z,10.52
2019-03-25T06:07:49.666Z,7.45
2019-03-25T06:10:23.228Z,8.90
2019-03-25T06:12:56.945Z,8.88
2019-03-25T06:15:31.406Z,10.07
2019-03-25T06:18:05.048Z,7.85
2019-03-25T06:20:38.614Z,5.95
2019-03-25T06:23:12.244Z,7.57
2019-03-25T06:25:45.851Z,11.23
2019-03-25T06:28:19.587Z,10.23
2019-03-25T06:30:53.159Z,9.65
2019-03-25T06:33:26.947Z,14.27
2019-03-25T06:36:00.626Z,11.50
2019-03-25T06:38:35.115Z,9.52
2019-03-25T06:41:08.737Z,9.85
2019-03-25T06:43:42.506Z,9.70
2019-03-25T06:46:16.861Z,10.30
2019-03-25T06:48:50.536Z,14.82
2019-03-25T06:51:24.317Z,13.43
2019-03-25T06:53:58.051Z,15.55
2019-03-25T06:56:31.872Z,9.85
2019-03-25T06:59:06.514Z,7.37
2019-03-25T07:01:40.133Z,8.60
2019-03-25T07:04:13.780Z,9.73
2019-03-25T07:06:47.310Z,9.80
2019-03-25T07:09:20.970Z,10.07
2019-03-25T07:11:54.593Z,7.90
2019-03-25T07:14:29.131Z,7.97
2019-03-25T07:17:02.664Z,7.20
2019-03-25T07:19:36.280Z,8.75
2019-03-25T07:22:10.050Z,13.15
2019-03-25T07:24:43.656Z,6.20
2019-03-25T07:27:17.195Z,6.87
2019-03-25T07:29:50.722Z,6.18
2019-03-25T07:32:24.312Z,8.40
2019-03-25T07:34:57.832Z,9.23
2019-03-25T07:37:31.395Z,5.12
2019-03-25T07:40:05.971Z,7.70
2019-03-25T07:42:39.628Z,9.00
2019-03-25T07:45:13.370Z,11.77
2019-03-25T07:47:47.030Z,11.00
2019-03-25T07:50:20.734Z,12.35
2019-03-25T07:52:54.354Z,10.05
2019-03-25T07:55:27.900Z,6.62
2019-03-25T07:58:01.457Z,6.55
2019-03-25T08:00:35.094Z,7.22
2019-03-25T08:03:08.711Z,7.95
2019-03-25T08:05:43.135Z,11.65
2019-03-25T08:08:16.711Z,6.55
2019-03-25T08:10:50.285Z,10.57
2019-03-25T08:13:24.031Z,7.00
2019-03-25T08:15:57.706Z,8.80
2019-03-25T08:18:31.392Z,10.52
2019-03-25T08:21:05.799Z,8.90
2019-03-25T08:23:40.265Z,9.02
2019-03-25T08:26:13.866Z,7.22
2019-03-25T08:28:47.604Z,5.97
2019-03-25T08:31:21.119Z,5.90
2019-03-25T08:33:55.394Z,7.90
2019-03-25T08:36:29.695Z,7.07
2019-03-25T08:39:03.534Z,5.35
2019-03-25T08:41:37.114Z,10.07
2019-03-25T08:44:10.713Z,6.22
2019-03-25T08:46:44.238Z,5.60
2019-03-25T08:49:17.984Z,5.20
2019-03-25T08:51:51.744Z,6.82
2019-03-25T08:54:25.372Z,11.23
2019-03-25T08:56:59.024Z,8.23
2019-03-25T08:59:32.598Z,4.57
2019-03-25T09:02:07.016Z,6.97
2019-03-25T09:04:40.724Z,7.03
2019-03-25T09:07:14.481Z,2.85
2019-03-25T09:09:48.045Z,3.65
2019-03-25T09:12:21.726Z,3.70
2019-03-25T09:14:55.560Z,5.55
2019-03-25T09:17:29.279Z,5.30
2019-03-25T09:20:03.133Z,4.00
2019-03-25T09:22:36.720Z,2.47
2019-03-25T09:25:10.409Z,5.72
2019-03-25T09:27:44.099Z,2.95
2019-03-25T09:30:40.267Z,2.00
2019-03-25T09:33:14.000Z,3.75
2019-03-25T09:35:48.468Z,3.97
2019-03-25T09:38:22.927Z,6.43
2019-03-25T09:40:56.568Z,4.70
2019-03-25T09:43:31.067Z,5.40
2019-03-25T09:46:05.467Z,3.90
2019-03-25T09:48:39.924Z,3.30
2019-03-25T09:51:13.476Z,6.03
2019-03-25T09:53:47.119Z,2.28
2019-03-25T09:56:20.826Z,3.45
2019-03-25T09:58:54.596Z,4.55
2019-03-25T10:01:28.233Z,9.15
2019-03-25T10:04:01.940Z,10.70
2019-03-25T10:06:35.577Z,2.72
2019-03-25T10:09:09.225Z,5.57
2019-03-25T10:11:42.913Z,11.75
2019-03-25T10:14:16.526Z,7.45
2019-03-25T10:16:50.256Z,4.47
2019-03-25T10:19:23.950Z,5.15
2019-03-25T10:21:57.649Z,5.75
2019-03-25T10:24:31.256Z,6.68
2019-03-25T10:27:05.086Z,5.65
2019-03-25T10:29:39.620Z,5.97
2019-03-25T10:32:14.145Z,5.90
2019-03-25T10:34:48.053Z,7.25
2019-03-25T10:37:21.832Z,5.45
2019-03-25T10:39:55.502Z,6.55
2019-03-25T10:42:29.316Z,5.30
2019-03-25T10:45:05.446Z,4.57
2019-03-25T10:47:39.020Z,11.73
2019-03-25T10:50:12.656Z,7.53
2019-03-25T10:52:47.255Z,8.32
2019-03-25T10:55:20.955Z,6.30
2019-03-25T10:57:54.728Z,6.00
2019-03-25T11:00:28.368Z,6.75
2019-03-25T11:03:02.923Z,6.35
2019-03-25T11:05:36.538Z,4.72
2019-03-25T11:08:10.272Z,5.28
2019-03-25T11:10:44.444Z,8.07
2019-03-25T11:13:18.340Z,5.82
2019-03-25T11:15:52.116Z,4.90
2019-03-25T11:18:25.743Z,4.45
2019-03-25T11:20:59.511Z,6.07
2019-03-25T11:23:33.123Z,6.80
2019-03-25T11:26:06.932Z,3.45
2019-03-25T11:28:41.461Z,5.57
2019-03-25T11:31:16.022Z,6.10
2019-03-25T11:33:49.706Z,4.47
2019-03-25T11:36:23.272Z,8.15
2019-03-25T11:38:56.928Z,7.37
2019-03-25T11:41:30.574Z,7.47
2019-03-25T11:44:05.090Z,8.30
2019-03-25T11:46:38.767Z,5.90
2019-03-25T11:49:12.496Z,6.32
2019-03-25T11:51:46.103Z,4.97
2019-03-25T11:54:19.651Z,4.28
2019-03-25T11:56:53.407Z,6.22
2019-03-25T11:59:27.107Z,7.87
2019-03-25T12:02:01.573Z,3.35
2019-03-25T12:04:35.310Z,5.85
2019-03-25T12:07:09.715Z,5.93
2019-03-25T12:09:44.258Z,6.93
2019-03-25T12:12:17.940Z,7.30
2019-03-25T12:14:51.651Z,6.00
2019-03-25T12:17:25.406Z,9.07
2019-03-25T12:19:58.989Z,5.55
2019-03-25T12:22:32.587Z,9.82
2019-03-25T12:25:06.947Z,5.22
2019-03-25T12:27:40.636Z,5.57
2019-03-25T12:30:14.120Z,5.00
2019-03-25T12:32:47.741Z,2.78
2019-03-25T12:35:21.393Z,3.95
2019-03-25T12:37:54.943Z,2.62
2019-03-25T12:40:28.756Z,2.80
2019-03-25T12:43:03.056Z,4.20
2019-03-25T12:45:36.904Z,4.90
2019-03-25T12:48:10.580Z,7.90
2019-03-25T12:50:44.401Z,4.28
2019-03-25T12:53:18.270Z,4.75
2019-03-25T12:55:52.012Z,7.32
2019-03-25T12:58:25.664Z,5.15
2019-03-25T13:00:59.343Z,4.32
2019-03-25T13:03:33.113Z,4.65
2019-03-25T13:06:07.631Z,4.30
2019-03-25T13:08:41.391Z,3.62
2019-03-25T13:11:15.131Z,6.15
2019-03-25T13:13:49.608Z,3.87
2019-03-25T13:16:23.362Z,3.08
2019-03-25T13:18:56.937Z,4.72
2019-03-25T13:21:31.544Z,5.75
2019-03-25T13:24:06.233Z,5.03
2019-03-25T13:26:39.799Z,4.95
2019-03-25T13:29:13.391Z,8.57
2019-03-25T13:31:48.002Z,3.80
2019-03-25T13:34:21.706Z,6.82
2019-03-25T13:36:56.176Z,6.50
2019-03-25T13:39:30.032Z,5.62
2019-03-25T13:42:03.741Z,5.35
2019-03-25T13:44:37.358Z,5.53
2019-03-25T13:47:11.747Z,8.85
2019-03-25T13:49:45.526Z,6.35
2019-03-25T13:52:19.228Z,6.35
2019-03-25T13:54:52.872Z,4.20
2019-03-25T13:57:26.605Z,8.32
2019-03-25T14:00:03.580Z,5.55
2019-03-25T14:02:33.839Z,5.62
2019-03-25T14:05:07.683Z,4.72
2019-03-25T14:07:41.351Z,4.25
2019-03-25T14:10:15.283Z,4.47
2019-03-25T14:12:48.907Z,3.20
2019-03-25T14:15:23.330Z,1.73
2019-03-25T14:17:57.059Z,3.42
2019-03-25T14:20:31.585Z,3.33
2019-03-25T14:23:05.121Z,1.75
2019-03-25T14:25:38.734Z,6.03
2019-03-25T14:28:13.171Z,4.15
2019-03-25T14:30:46.694Z,3.65
2019-03-25T14:33:20.384Z,1.50
2019-03-25T14:35:54.193Z,6.40
2019-03-25T14:38:27.739Z,1.60
2019-03-25T14:41:02.326Z,2.35
2019-03-25T14:43:35.996Z,3.37
2019-03-25T14:46:09.556Z,2.65
2019-03-25T14:48:43.131Z,5.15
2019-03-25T14:51:17.735Z,2.62
2019-03-25T14:53:51.414Z,2.92
2019-03-25T14:56:25.067Z,4.30
2019-03-25T14:58:59.625Z,2.15
2019-03-25T15:01:33.959Z,5.22
2019-03-25T15:04:07.666Z,2.03
2019-03-25T15:06:42.245Z,3.37
2019-03-25T15:09:15.897Z,2.20
2019-03-25T15:11:49.524Z,2.67
2019-03-25T15:14:23.301Z,2.37
2019-03-25T15:16:57.046Z,2.65
2019-03-25T15:19:31.135Z,3.10
2019-03-25T15:22:05.029Z,2.65
2019-03-25T15:24:38.620Z,3.42
2019-03-25T15:27:12.291Z,2.45
2019-03-25T15:29:45.844Z,3.72
2019-03-25T15:32:19.559Z,4.93
2019-03-25T15:34:53.196Z,2.08
2019-03-25T15:37:26.881Z,2.35
2019-03-25T15:40:00.580Z,1.70
2019-03-25T15:42:34.233Z,4.57
2019-03-25T15:45:08.916Z,1.65
2019-03-25T15:47:45.792Z,1.35
2019-03-25T15:50:16.287Z,7.05
2019-03-25T15:52:50.866Z,1.65
2019-03-25T15:55:25.384Z,2.83
2019-03-25T15:57:59.194Z,2.05
2019-03-25T16:00:33.555Z,3.70
2019-03-25T16:03:07.277Z,1.60
2019-03-25T16:05:40.948Z,3.00
2019-03-25T16:08:14.594Z,1.58
2019-03-25T16:10:48.755Z,3.20
2019-03-25T16:13:22.582Z,3.25
2019-03-25T16:15:57.419Z,2.50
2019-03-25T16:18:32.580Z,4.62
2019-03-25T16:21:07.112Z,0.80
2019-03-25T16:23:40.721Z,5.85
2019-03-25T16:26:14.436Z,2.95
2019-03-25T16:28:48.908Z,2.12
2019-03-25T16:31:22.512Z,2.10
2019-03-25T16:33:56.322Z,2.05
2019-03-25T16:36:29.954Z,2.15
2019-03-25T16:39:03.712Z,2.40
2019-03-25T16:41:38.315Z,1.95
2019-03-25T16:44:12.063Z,1.70
2019-03-25T16:46:46.399Z,1.10
2019-03-25T16:49:20.111Z,0.80
2019-03-25T16:51:53.935Z,1.42
2019-03-25T16:54:27.768Z,0.50
2019-03-25T16:57:01.527Z,1.08
2019-03-25T16:59:35.127Z,0.77
2019-03-25T17:02:09.824Z,1.60
2019-03-25T17:04:43.632Z,1.67
2019-03-25T17:07:18.290Z,1.58
2019-03-25T17:09:52.854Z,5.22
2019-03-25T17:12:26.689Z,3.40
2019-03-25T17:15:00.531Z,3.30
2019-03-25T17:17:34.206Z,0.52
2019-03-25T17:20:08.964Z,2.05
2019-03-25T17:22:42.658Z,1.23
2019-03-25T17:25:16.443Z,3.03
2019-03-25T17:27:50.904Z,1.77
2019-03-25T17:30:24.527Z,1.12
2019-03-25T17:32:58.192Z,1.00
2019-03-25T17:35:32.588Z,2.15
2019-03-25T17:38:06.286Z,1.10
2019-03-25T17:40:39.929Z,1.52
2019-03-25T17:43:13.642Z,5.62
2019-03-25T17:45:48.006Z,3.92
2019-03-25T17:48:22.543Z,1.52
2019-03-25T17:50:56.164Z,3.90
2019-03-25T17:53:30.660Z,2.12
2019-03-25T17:56:04.415Z,9.15
2019-03-25T17:58:38.245Z,1.17
2019-03-25T18:01:11.843Z,2.78
2019-03-25T18:03:45.563Z,2.62
2019-03-25T18:06:19.159Z,2.20
2019-03-25T18:08:52.897Z,3.75
2019-03-25T18:11:26.703Z,6.18
2019-03-25T18:14:00.298Z,2.85
2019-03-25T18:16:34.725Z,1.65
2019-03-25T18:19:08.342Z,2.90
2019-03-25T18:21:42.155Z,2.37
2019-03-25T18:24:17.320Z,2.25
2019-03-25T18:26:51.967Z,4.05
2019-03-25T18:29:26.506Z,6.30
2019-03-25T18:32:00.165Z,6.07
2019-03-25T18:34:34.481Z,6.65
2019-03-25T18:37:08.259Z,5.00
2019-03-25T18:39:42.080Z,7.65
2019-03-25T18:42:15.739Z,5.35
2019-03-25T18:44:49.363Z,6.62
2019-03-25T18:47:23.195Z,5.97
2019-03-25T18:49:56.837Z,5.22
2019-03-25T18:52:31.566Z,3.20
2019-03-25T18:55:05.372Z,4.75
2019-03-25T18:57:38.982Z,3.78
2019-03-25T19:00:32.208Z,3.83
2019-03-25T19:03:06.046Z,6.70
2019-03-25T19:05:39.931Z,4.65
2019-03-25T19:08:13.448Z,2.75
2019-03-25T19:10:47.805Z,6.80
2019-03-25T19:13:22.291Z,4.70
2019-03-25T19:15:55.970Z,9.73
2019-03-25T19:18:29.680Z,3.20
2019-03-25T19:21:03.500Z,4.35
2019-03-25T19:23:37.337Z,4.50
2019-03-25T19:26:10.961Z,4.45
2019-03-25T19:28:45.511Z,2.35
2019-03-25T19:31:19.129Z,2.42
2019-03-25T19:33:52.758Z,4.22
2019-03-25T19:36:26.452Z,1.95
2019-03-25T19:38:59.984Z,1.55
2019-03-25T19:41:33.759Z,1.33
2019-03-25T19:44:08.212Z,2.85
2019-03-25T19:46:41.818Z,2.25
2019-03-25T19:49:15.539Z,1.73
2019-03-25T19:51:49.130Z,2.42
2019-03-25T19:54:22.962Z,1.15
2019-03-25T19:56:56.688Z,1.00
2019-03-25T19:59:30.600Z,1.98
2019-03-25T20:02:04.203Z,2.25
2019-03-25T20:04:37.810Z,2.10
2019-03-25T20:07:12.159Z,1.55
2019-03-25T20:09:45.792Z,1.70
2019-03-25T20:12:19.542Z,2.15
2019-03-25T20:14:53.184Z,2.92
2019-03-25T20:17:26.821Z,4.75
2019-03-25T20:20:00.542Z,5.65
2019-03-25T20:22:34.030Z,2.60
2019-03-25T20:25:07.579Z,2.33
2019-03-25T20:27:41.207Z,5.90
2019-03-25T20:30:14.851Z,7.53
2019-03-25T20:32:48.600Z,5.62
2019-03-25T20:35:22.302Z,5.40
2019-03-25T20:37:55.948Z,3.50
2019-03-25T20:40:29.620Z,4.37
2019-03-25T20:43:03.326Z,4.60
2019-03-25T20:45:37.082Z,2.97
2019-03-25T20:48:10.582Z,3.87
2019-03-25T20:50:44.359Z,1.98
2019-03-25T20:53:17.916Z,1.87
2019-03-25T20:55:51.689Z,1.67
2019-03-25T20:58:25.526Z,1.35
2019-03-25T21:00:59.208Z,1.40
2019-03-25T21:03:32.969Z,2.87
2019-03-25T21:06:07.325Z,3.10
2019-03-25T21:08:41.200Z,2.62
2019-03-25T21:11:14.750Z,1.83
2019-03-25T21:13:49.242Z,1.75
2019-03-25T21:16:23.804Z,2.75
2019-03-25T21:18:57.831Z,2.50
2019-03-25T21:21:31.409Z,2.35
2019-03-25T21:24:05.246Z,2.25
2019-03-25T21:26:39.745Z,3.85
2019-03-25T21:29:13.572Z,5.43
2019-03-25T21:31:47.201Z,4.10
2019-03-25T21:34:20.966Z,3.30
2019-03-25T21:36:54.676Z,3.50
2019-03-25T21:39:28.281Z,4.53
2019-03-25T21:42:01.910Z,3.03
2019-03-25T21:44:35.644Z,6.30
2019-03-25T21:47:09.409Z,7.72
2019-03-25T21:49:43.163Z,5.68
2019-03-25T21:52:16.809Z,4.25
2019-03-25T21:54:50.496Z,4.50
2019-03-25T21:57:24.300Z,5.57
2019-03-25T21:59:58.106Z,5.18
2019-03-25T22:02:32.492Z,8.13
2019-03-25T22:05:06.093Z,4.45
2019-03-25T22:07:39.684Z,5.07
2019-03-25T22:10:13.279Z,7.75
2019-03-25T22:12:47.851Z,7.55
2019-03-25T22:15:21.668Z,6.18
2019-03-25T22:17:55.256Z,6.32
2019-03-25T22:20:29.628Z,6.90
2019-03-25T22:23:04.016Z,9.10
2019-03-25T22:25:37.629Z,8.25
2019-03-25T22:28:12.176Z,7.10
2019-03-25T22:30:45.791Z,8.50
2019-03-25T22:33:25.663Z,8.50
2019-03-25T22:35:53.195Z,8.70
2019-03-25T22:38:26.812Z,9.07
2019-03-25T22:41:00.448Z,7.25
2019-03-25T22:43:34.070Z,7.53
2019-03-25T22:46:07.715Z,8.15
2019-03-25T22:48:41.331Z,10.20
2019-03-25T22:51:15.034Z,10.30
2019-03-25T22:53:48.690Z,9.05
2019-03-25T22:56:22.290Z,7.15
2019-03-25T22:58:55.858Z,8.25
2019-03-25T23:01:29.499Z,8.25
2019-03-25T23:04:04.339Z,9.25
2019-03-25T23:06:39.134Z,11.18
2019-03-25T23:09:13.463Z,9.52
2019-03-25T23:11:47.019Z,10.15
2019-03-25T23:14:20.673Z,6.90
2019-03-25T23:16:54.383Z,5.45
2019-03-25T23:19:28.016Z,9.45
2019-03-25T23:22:01.833Z,8.13
2019-03-25T23:24:35.575Z,8.30
2019-03-25T23:27:09.213Z,8.70
2019-03-25T23:29:43.095Z,8.20
2019-03-25T23:32:16.721Z,10.32
2019-03-25T23:34:50.475Z,7.55
2019-03-25T23:37:24.161Z,8.57
2019-03-25T23:39:57.879Z,8.63
2019-03-25T23:42:31.461Z,11.98
2019-03-25T23:45:06.304Z,8.15
2019-03-25T23:47:39.908Z,8.15
2019-03-25T23:50:13.947Z,9.65
2019-03-25T23:52:47.675Z,6.70
2019-03-25T23:55:21.198Z,9.63
2019-03-25T23:57:54.859Z,5.65
